This is the latest recevied weather packets stored in our database for station/object LA9UTA-13. If no packets are shown the sender has not sent any weather packets the latest 10 day(s).
| Time | Temp. | Humidity | Pressure | Rain* | Wind** | Luminosity | Snow |
|---|---|---|---|---|---|---|---|
| 1778077082 | 12.78° C | 22% | 1011.1 hPa | 0 mm | - | 448 W/m² | - |
| 1778075881 | 11.67° C | 23% | 1011.2 hPa | 0 mm | - | 452 W/m² | - |
| 1778074682 | 11.11° C | 24% | 1012.2 hPa | 0 mm | - | 460 W/m² | - |
| 1778073482 | 12.22° C | 26% | 1011.1 hPa | 0 mm | - | 61 W/m² | - |
| 1778072281 | 11.67° C | 27% | 1012.2 hPa | 0 mm | - | 54 W/m² | - |
| 1778071082 | 11.67° C | 28% | 1012.2 hPa | 0 mm | - | 523 W/m² | - |
| 1778069882 | 11.11° C | 29% | 1012.2 hPa | 0 mm | - | 558 W/m² | - |
| 1778068681 | 11.67° C | 29% | 1012.2 hPa | 0 mm | - | 565 W/m² | - |
| 1778067481 | 10.56° C | 31% | 1012.3 hPa | 0 mm | - | 574 W/m² | - |
| 1778066281 | 10° C | 31% | 1012.3 hPa | 0 mm | - | 581 W/m² | - |
| 1778065081 | 8.89° C | 34% | 1012.4 hPa | 0 mm | - | 583 W/m² | - |
| 1778063882 | 10.56° C | 30% | 1012.3 hPa | 0 mm | - | 601 W/m² | - |
| 1778062682 | 11.67° C | 31% | 1012.2 hPa | 0 mm | - | 556 W/m² | - |
| 1778061481 | 10.56° C | 32% | 1012.3 hPa | 0 mm | - | 553 W/m² | - |
| 1778060282 | 11.11° C | 31% | 1012.2 hPa | 0 mm | - | 524 W/m² | - |
| 1778059081 | 9.44° C | 32% | 1012.4 hPa | 0 mm | - | 505 W/m² | - |
| 1778057882 | 7.22° C | 33% | 1012.6 hPa | 0 mm | - | 473 W/m² | - |
| 1778056681 | 7.78° C | 35% | 1012.6 hPa | 0 mm | - | 446 W/m² | - |
| 1778055482 | 7.78° C | 33% | 1013.5 hPa | 0 mm | - | 417 W/m² | - |
| 1778054281 | 8.89° C | 33% | 1013.4 hPa | 0 mm | - | 383 W/m² | - |
| 1778053231 | 5.56° C | 40% | 1013.8 hPa | 0 mm | - | 278 W/m² | - |
| 1778053082 | 6.67° C | 38% | 1013.7 hPa | 0 mm | - | 351 W/m² | - |
| 1778051881 | 7.22° C | 35% | 1012.6 hPa | 0 mm | - | 314 W/m² | - |
| 1778050681 | 5.56° C | 40% | 1013.8 hPa | 0 mm | - | 278 W/m² | - |
| 1778049481 | 4.44° C | 43% | 1012.9 hPa | 0 mm | - | 41 W/m² | - |
* Rain latest hour (hover to see other rain measurements)
** Current wind speed in m/s (hover to see current wind gust speed)